Aviation Digital Data Service (ADDS)

Output produced by METARs form (0958 UTC 19 January 2019)
found at http://www.aviationweather.gov/metar/data/
 
Forecast for: ZHCC (ZHENGZHOU , CN)
Text: TAF ZHCC 190305Z 1906/2006 36005MPS 3000 HZ NSC TX06/1907Z TNM03/22Z
Forecast period: 0600 UTC 19 January 2019 to 0600 UTC 20 January 2019
Forecast type: FROM: standard forecast or significant change
Winds: from the N (360 degrees) at 12 MPH (10 knots; 5.1 m/s)
Visibility: 1.86 miles (2.99 km)
Ceiling: unknown
Clouds: missing
Weather: HZ  (haze)